^^
No Wait Weather (KNEBELLE1) Station Historical Data
Daily Summary for May 15, 2019 Units:  English    Metric   Both
Daily Weekly Monthly Yearly Custom
  High: Low: Average:
Temperature: 84.7 °F 57.3 °F 70 °F
Dew Point: 67.31 °F 50.08 °F 57.5 °F
Humidity: 100% 31% 70%
Wind Speed: 3mph 0mph 0.1mph
Wind Gust: 9mph - -
Wind- - SSW
Pressure: 29.81 in 29.63 in -
Precipitation: 0 in    
Historical Graphs
 
 
Tabular Data for May 15, 2019
Time Temperature Dew Point Pressure Wind Wind Speed Wind Gust Humidity Rainfall Rate (Hourly) solar
00:04 66.4 °F 55.91 °F 29.71 in Calm     69% 0 in WeatherCatV3.04B91 W/m2
00:09 66.4 °F 55.51 °F 29.71 in Calm     68% 0 in WeatherCatV3.04B91 W/m2
00:13 66.6 °F 55.7 °F 29.71 in Calm     68% 0 in WeatherCatV3.04B91 W/m2
00:19 66.6 °F 55.7 °F 29.71 in Calm     68% 0 in WeatherCatV3.04B91 W/m2
00:24 66.4 °F 55.51 °F 29.71 in Calm     68% 0 in WeatherCatV3.04B91 W/m2
00:29 66.3 °F 55.82 °F 29.71 in Calm     69% 0 in WeatherCatV3.04B91 W/m2
00:34 66 °F 55.53 °F 29.71 in Calm     69% 0 in WeatherCatV3.04B91 W/m2
00:39 65.5 °F 55.45 °F 29.71 in Calm     70% 0 in WeatherCatV3.04B91 W/m2
00:44 65.2 °F 55.16 °F 29.71 in Calm     70% 0 in WeatherCatV3.04B91 W/m2
00:49 64.7 °F 55.07 °F 29.71 in Calm     71% 0 in WeatherCatV3.04B91 W/m2
00:54 64.3 °F 55.07 °F 29.71 in Calm     72% 0 in WeatherCatV3.04B91 W/m2
00:59 64.2 °F 55.36 °F 29.71 in Calm     73% 0 in WeatherCatV3.04B91 W/m2
01:04 64 °F 55.54 °F 29.71 in Calm     74% 0 in WeatherCatV3.04B91 W/m2
01:09 63.7 °F 55.62 °F 29.71 in Calm     75% 0 in WeatherCatV3.04B91 W/m2
01:14 63.4 °F 56.06 °F 29.71 in Calm     77% 0 in WeatherCatV3.04B91 W/m2
01:19 63.2 °F 56.22 °F 29.71 in Calm     78% 0 in WeatherCatV3.04B91 W/m2
01:24 63.2 °F 56.57 °F 29.71 in Calm     79% 0 in WeatherCatV3.04B91 W/m2
01:29 63.1 °F 56.48 °F 29.71 in Calm     79% 0 in WeatherCatV3.04B91 W/m2
01:34 63.1 °F 56.82 °F 29.71 in Calm     80% 0 in WeatherCatV3.04B91 W/m2
01:39 62.7 °F 56.44 °F 29.71 in Calm     80% 0 in WeatherCatV3.04B91 W/m2
01:44 62.9 °F 57.32 °F 29.71 in Calm     82% 0 in WeatherCatV3.04B91 W/m2
01:49 63.1 °F 57.85 °F 29.71 in Calm   1 mph 83% 0 in WeatherCatV3.04B91 W/m2
01:54 63.2 °F 57.95 °F 29.71 in Calm     83% 0 in WeatherCatV3.04B91 W/m2
01:59 63.2 °F 57.95 °F 29.72 in Calm     83% 0 in WeatherCatV3.04B91 W/m2
02:04 63.1 °F 57.85 °F 29.72 in Calm     83% 0 in WeatherCatV3.04B91 W/m2
02:09 62.9 °F 57.99 °F 29.72 in Calm     84% 0 in WeatherCatV3.04B91 W/m2
02:14 62.7 °F 57.79 °F 29.72 in Calm     84% 0 in WeatherCatV3.04B91 W/m2
02:19 62.6 °F 57.69 °F 29.72 in Calm     84% 0 in WeatherCatV3.04B91 W/m2
02:24 62.4 °F 57.83 °F 29.72 in Calm     85% 0 in WeatherCatV3.04B91 W/m2
02:29 62.3 °F 57.73 °F 29.72 in Calm     85% 0 in WeatherCatV3.04B91 W/m2
02:34 62.1 °F 57.53 °F 29.72 in Calm     85% 0 in WeatherCatV3.04B91 W/m2
02:39 61.8 °F 57.56 °F 29.72 in Calm     86% 0 in WeatherCatV3.04B91 W/m2
02:44 61.8 °F 57.56 °F 29.72 in Calm     86% 0 in WeatherCatV3.04B91 W/m2
02:49 61.8 °F 57.88 °F 29.72 in Calm     87% 0 in WeatherCatV3.04B91 W/m2
02:54 61.8 °F 57.88 °F 29.72 in Calm     87% 0 in WeatherCatV3.04B91 W/m2
02:59 61.6 °F 57.69 °F 29.72 in Calm     87% 0 in WeatherCatV3.04B91 W/m2
03:04 61.5 °F 57.59 °F 29.72 in Calm     87% 0 in WeatherCatV3.04B91 W/m2
03:09 61.5 °F 57.91 °F 29.72 in Calm     88% 0 in WeatherCatV3.04B91 W/m2
03:14 61.3 °F 57.71 °F 29.72 in Calm     88% 0 in WeatherCatV3.04B91 W/m2
03:19 61.2 °F 57.61 °F 29.72 in Calm     88% 0 in WeatherCatV3.04B91 W/m2
03:24 61 °F 57.42 °F 29.72 in Calm     88% 0 in WeatherCatV3.04B91 W/m2
03:29 60.9 °F 57.32 °F 29.72 in Calm     88% 0 in WeatherCatV3.04B91 W/m2
03:34 60.7 °F 57.43 °F 29.72 in Calm     89% 0 in WeatherCatV3.04B91 W/m2
03:39 60.5 °F 57.24 °F 29.72 in Calm     89% 0 in WeatherCatV3.04B91 W/m2
03:44 60.4 °F 57.14 °F 29.73 in Calm     89% 0 in WeatherCatV3.04B91 W/m2
03:49 60.1 °F 56.84 °F 29.73 in Calm     89% 0 in WeatherCatV3.04B91 W/m2
03:54 59.9 °F 56.96 °F 29.73 in Calm     90% 0 in WeatherCatV3.04B91 W/m2
03:59 59.9 °F 56.96 °F 29.74 in Calm     90% 0 in WeatherCatV3.04B91 W/m2
04:04 59.9 °F 56.96 °F 29.74 in Calm     90% 0 in WeatherCatV3.04B91 W/m2
04:09 59.8 °F 56.86 °F 29.74 in Calm     90% 0 in WeatherCatV3.04B91 W/m2
04:14 59.8 °F 56.86 °F 29.73 in Calm     90% 0 in WeatherCatV3.04B91 W/m2
04:19 59.6 °F 56.97 °F 29.73 in Calm     91% 0 in WeatherCatV3.04B91 W/m2
04:24 59.5 °F 56.87 °F 29.73 in Calm     91% 0 in WeatherCatV3.04B91 W/m2
04:29 59.3 °F 56.67 °F 29.73 in Calm     91% 0 in WeatherCatV3.04B91 W/m2
04:34 59 °F 56.37 °F 29.73 in Calm     91% 0 in WeatherCatV3.04B91 W/m2
04:39 58.9 °F 56.27 °F 29.73 in Calm     91% 0 in WeatherCatV3.04B91 W/m2
04:44 58.6 °F 55.98 °F 29.73 in Calm     91% 0 in WeatherCatV3.04B91 W/m2
04:49 58.4 °F 56.08 °F 29.73 in Calm     92% 0 in WeatherCatV3.04B91 W/m2
04:54 58.4 °F 56.08 °F 29.73 in Calm     92% 0 in WeatherCatV3.04B91 W/m2
04:59 58.3 °F 55.98 °F 29.73 in Calm     92% 0 in WeatherCatV3.04B91 W/m2
05:04 58.3 °F 55.98 °F 29.73 in Calm     92% 0 in WeatherCatV3.04B91 W/m2
05:09 58.3 °F 56.28 °F 29.73 in Calm     93% 0 in WeatherCatV3.04B91 W/m2
05:13 58.3 °F 56.28 °F 29.73 in Calm     93% 0 in WeatherCatV3.04B91 W/m2
05:19 58.3 °F 56.28 °F 29.74 in Calm     93% 0 in WeatherCatV3.04B91 W/m2
05:24 58.1 °F 56.08 °F 29.74 in Calm     93% 0 in WeatherCatV3.04B91 W/m2
05:29 58 °F 55.98 °F 29.73 in Calm     93% 0 in WeatherCatV3.04B91 W/m2
05:34 57.8 °F 55.79 °F 29.73 in Calm     93% 0 in WeatherCatV3.04B91 W/m2
05:39 58 °F 55.98 °F 29.73 in Calm     93% 0 in WeatherCatV3.04B91 W/m2
05:44 58 °F 55.98 °F 29.74 in Calm     93% 0 in WeatherCatV3.04B91 W/m2
05:49 58 °F 55.98 °F 29.74 in Calm     93% 0 in WeatherCatV3.04B91 W/m2
05:54 57.6 °F 55.59 °F 29.74 in Calm     93% 0 in WeatherCatV3.04B91 W/m2
05:59 57.5 °F 55.49 °F 29.73 in Calm     93% 0 in WeatherCatV3.04B91 W/m2
06:04 57.5 °F 55.78 °F 29.73 in Calm     94% 0 in WeatherCatV3.04B91 W/m2
06:09 57.5 °F 55.78 °F 29.73 in Calm     94% 0 in WeatherCatV3.04B91 W/m2
06:14 57.5 °F 55.78 °F 29.74 in Calm     94% 0 in WeatherCatV3.04B91 W/m2
06:19 57.3 °F 55.59 °F 29.74 in Calm     94% 0 in WeatherCatV3.04B91 W/m2
06:24 57.3 °F 55.59 °F 29.74 in Calm     94% 0 in WeatherCatV3.04B91 W/m2
06:29 57.3 °F 55.59 °F 29.74 in Calm     94% 0 in WeatherCatV3.04B91 W/m2
06:34 57.3 °F 55.59 °F 29.74 in Calm     94% 0 in WeatherCatV3.04B91 W/m2
06:39 57.3 °F 55.59 °F 29.74 in Calm     94% 0 in WeatherCatV3.04B91 W/m2
06:44 57.5 °F 55.78 °F 29.75 in Calm     94% 0 in WeatherCatV3.04B91 W/m2
06:49 57.5 °F 55.78 °F 29.75 in Calm     94% 0 in WeatherCatV3.04B91 W/m2
06:54 57.6 °F 55.88 °F 29.75 in Calm     94% 0 in WeatherCatV3.04B91 W/m2
06:59 57.6 °F 55.88 °F 29.76 in Calm     94% 0 in WeatherCatV3.04B91 W/m2
07:04 57.6 °F 55.88 °F 29.76 in Calm     94% 0 in WeatherCatV3.04B91 W/m2
07:09 57.8 °F 56.37 °F 29.76 in Calm     95% 0 in WeatherCatV3.04B91 W/m2
07:14 58.3 °F 56.87 °F 29.76 in Calm     95% 0 in WeatherCatV3.04B91 W/m2
07:19 58.7 °F 57.27 °F 29.76 in Calm     95% 0 in WeatherCatV3.04B91 W/m2
07:24 59.3 °F 57.87 °F 29.76 in Calm     95% 0 in WeatherCatV3.04B91 W/m2
07:29 60.1 °F 58.66 °F 29.76 in Calm     95% 0 in WeatherCatV3.04B91 W/m2
07:34 61 °F 59.26 °F 29.76 in Calm     94% 0 in WeatherCatV3.04B91 W/m2
07:39 61.8 °F 60.05 °F 29.76 in Calm     94% 0 in WeatherCatV3.04B91 W/m2
07:44 62.4 °F 60.35 °F 29.76 in Calm     93% 0 in WeatherCatV3.04B91 W/m2
07:49 63.1 °F 60.73 °F 29.76 in Calm     92% 0 in WeatherCatV3.04B91 W/m2
07:54 63.5 °F 60.82 °F 29.76 in Calm     91% 0 in WeatherCatV3.04B91 W/m2
07:59 64 °F 60.69 °F 29.77 in Calm     89% 0 in WeatherCatV3.04B91 W/m2
08:04 64.3 °F 60.66 °F 29.77 in Calm     88% 0 in WeatherCatV3.04B91 W/m2
08:09 64.7 °F 60.74 °F 29.77 in Calm     87% 0 in WeatherCatV3.04B91 W/m2
08:14 65.2 °F 60.57 °F 29.77 in Calm     85% 0 in WeatherCatV3.04B91 W/m2
08:19 65.5 °F 60.19 °F 29.77 in Calm     83% 0 in WeatherCatV3.04B91 W/m2
08:24 65.6 °F 59.6 °F 29.77 in Calm     81% 0 in WeatherCatV3.04B91 W/m2
08:29 65.8 °F 59.45 °F 29.77 in Calm   1 mph 80% 0 in WeatherCatV3.04B91 W/m2
08:34 66 °F 59.29 °F 29.77 in Calm     79% 0 in WeatherCatV3.04B91 W/m2
08:39 66.3 °F 59.23 °F 29.77 in Calm     78% 0 in WeatherCatV3.04B91 W/m2
08:44 66.6 °F 59.16 °F 29.77 in Calm   2 mph 77% 0 in WeatherCatV3.04B91 W/m2
08:49 66.8 °F 59.35 °F 29.77 in Calm     77% 0 in WeatherCatV3.04B91 W/m2
08:54 67.3 °F 60.2 °F 29.77 in Calm     78% 0 in WeatherCatV3.04B91 W/m2
08:59 66.9 °F 61.22 °F 29.77 in Calm     82% 0 in WeatherCatV3.04B91 W/m2
09:04 65.8 °F 60.49 °F 29.77 in Calm     83% 0 in WeatherCatV3.04B91 W/m2
09:09 64.7 °F 59.75 °F 29.77 in Calm     84% 0 in WeatherCatV3.04B91 W/m2
09:14 63.9 °F 59.3 °F 29.79 in Calm     85% 0 in WeatherCatV3.04B91 W/m2
09:19 63.4 °F 59.46 °F 29.79 in Calm     87% 0 in WeatherCatV3.04B91 W/m2
09:24 62.7 °F 59.09 °F 29.79 in Calm     88% 0 in WeatherCatV3.04B91 W/m2
09:29 62.3 °F 59.33 °F 29.79 in Calm     90% 0 in WeatherCatV3.04B91 W/m2
09:34 62 °F 59.65 °F 29.79 in Calm     92% 0 in WeatherCatV3.04B91 W/m2
09:39 62 °F 60.55 °F 29.79 in Calm     95% 0 in WeatherCatV3.04B91 W/m2
09:44 61.8 °F 60.64 °F 29.79 in Calm     96% 0 in WeatherCatV3.04B91 W/m2
09:49 61.8 °F 60.94 °F 29.79 in Calm     97% 0 in WeatherCatV3.04B91 W/m2
09:54 62 °F 61.43 °F 29.79 in Calm     98% 0 in WeatherCatV3.04B91 W/m2
09:59 62.4 °F 62.11 °F 29.80 in Calm     99% 0 in WeatherCatV3.04B91 W/m2
10:04 62.3 °F 62.01 °F 29.80 in Calm     99% 0 in WeatherCatV3.04B91 W/m2
10:09 62.6 °F 62.31 °F 29.80 in Calm     99% 0 in WeatherCatV3.04B91 W/m2
10:14 62.6 °F 62.31 °F 29.81 in Calm     99% 0 in WeatherCatV3.04B91 W/m2
10:19 63.1 °F 62.81 °F 29.81 in Calm     99% 0 in WeatherCatV3.04B91 W/m2
10:24 63.5 °F 63.21 °F 29.81 in Calm   2 mph 99% 0 in WeatherCatV3.04B91 W/m2
10:29 64 °F 63.71 °F 29.80 in Calm   2 mph 99% 0 in WeatherCatV3.04B91 W/m2
10:34 64.3 °F 64.01 °F 29.80 in Calm     99% 0 in WeatherCatV3.04B91 W/m2
10:39 64.5 °F 64.21 °F 29.80 in Calm     99% 0 in WeatherCatV3.04B91 W/m2
10:44 64.8 °F 64.51 °F 29.80 in Calm   1 mph 99% 0 in WeatherCatV3.04B91 W/m2
10:49 64.8 °F 64.51 °F 29.80 in Calm     99% 0 in WeatherCatV3.04B91 W/m2
10:54 64.7 °F 64.41 °F 29.80 in Calm     99% 0 in WeatherCatV3.04B91 W/m2
10:59 64.7 °F 64.41 °F 29.79 in Calm     99% 0 in WeatherCatV3.04B91 W/m2
11:04 64.5 °F 64.21 °F 29.79 in Calm     99% 0 in WeatherCatV3.04B91 W/m2
11:09 64.5 °F 64.21 °F 29.79 in Calm     99% 0 in WeatherCatV3.04B91 W/m2
11:14 64.5 °F 64.21 °F 29.79 in Calm     99% 0 in WeatherCatV3.04B91 W/m2
11:19 64.8 °F 64.51 °F 29.79 in Calm     99% 0 in WeatherCatV3.04B91 W/m2
11:24 65.2 °F 64.91 °F 29.79 in Calm     99% 0 in WeatherCatV3.04B91 W/m2
11:29 65.6 °F 65.31 °F 29.79 in Calm   2 mph 99% 0 in WeatherCatV3.04B91 W/m2
11:34 65.3 °F 65.01 °F 29.79 in Calm   1 mph 99% 0 in WeatherCatV3.04B91 W/m2
11:39 65.5 °F 65.5 °F 29.79 in Calm     100% 0 in WeatherCatV3.04B91 W/m2
11:44 66 °F 65.71 °F 29.79 in Calm     99% 0 in WeatherCatV3.04B91 W/m2
11:49 66.1 °F 65.81 °F 29.79 in Calm     99% 0 in WeatherCatV3.04B91 W/m2
11:54 66.6 °F 66.6 °F 29.79 in Calm     100% 0 in WeatherCatV3.04B91 W/m2
11:59 66.9 °F 66.61 °F 29.78 in Calm     99% 0 in WeatherCatV3.04B91 W/m2
12:04 67.3 °F 67.01 °F 29.78 in Calm     99% 0 in WeatherCatV3.04B91 W/m2
12:09 67.3 °F 67.01 °F 29.78 in Calm     99% 0 in WeatherCatV3.04B91 W/m2
12:14 67.6 °F 67.31 °F 29.77 in Calm     99% 0 in WeatherCatV3.04B91 W/m2
12:19 67.4 °F 66.81 °F 29.77 in Calm   1 mph 98% 0 in WeatherCatV3.04B91 W/m2
12:24 67.1 °F 66.51 °F 29.77 in Calm   1 mph 98% 0 in WeatherCatV3.04B91 W/m2
12:29 67.6 °F 66.71 °F 29.77 in Calm     97% 0 in WeatherCatV3.04B91 W/m2
12:34 67.6 °F 66.41 °F 29.77 in Calm     96% 0 in WeatherCatV3.04B91 W/m2
12:39 68.4 °F 66.6 °F 29.77 in Calm     94% 0 in WeatherCatV3.04B91 W/m2
12:44 69.6 °F 66.85 °F 29.76 in Calm   1 mph 91% 0 in WeatherCatV3.04B91 W/m2
12:49 70.3 °F 65.23 °F 29.76 in Calm     84% 0 in WeatherCatV3.04B91 W/m2
12:54 71.5 °F 62.76 °F 29.76 in Calm   2 mph 74% 0 in WeatherCatV3.04B91 W/m2
12:59 72.5 °F 60.48 °F 29.76 in Calm     66% 0 in WeatherCatV3.04B91 W/m2
13:04 73.7 °F 59.85 °F 29.76 in Calm     62% 0 in WeatherCatV3.04B91 W/m2
13:09 74.7 °F 59.87 °F 29.76 in Calm     60% 0 in WeatherCatV3.04B91 W/m2
13:14 76 °F 59.65 °F 29.75 in Calm     57% 0 in WeatherCatV3.04B91 W/m2
13:19 77 °F 58.54 °F 29.75 in NE 2 mph 6 mph 53% 0 in WeatherCatV3.04B91 W/m2
13:24 77.6 °F 58.02 °F 29.75 in Calm     51% 0 in WeatherCatV3.04B91 W/m2
13:29 77.9 °F 56.02 °F 29.74 in Calm     47% 0 in WeatherCatV3.04B91 W/m2
13:34 78.5 °F 54.12 °F 29.74 in Calm   1 mph 43% 0 in WeatherCatV3.04B91 W/m2
13:39 78.8 °F 55.64 °F 29.74 in Calm     45% 0 in WeatherCatV3.04B91 W/m2
13:44 79 °F 55.2 °F 29.73 in Calm     44% 0 in WeatherCatV3.04B91 W/m2
13:49 79.4 °F 55.56 °F 29.73 in Calm     44% 0 in WeatherCatV3.04B91 W/m2
13:54 79.6 °F 53.8 °F 29.73 in Calm   2 mph 41% 0 in WeatherCatV3.04B91 W/m2
13:59 79.9 °F 54.07 °F 29.72 in Calm     41% 0 in WeatherCatV3.04B91 W/m2
14:04 80.1 °F 55.56 °F 29.72 in Calm     43% 0 in WeatherCatV3.04B91 W/m2
14:09 80.3 °F 56.37 °F 29.72 in Calm   3 mph 44% 0 in WeatherCatV3.04B91 W/m2
14:14 80.5 °F 53.24 °F 29.72 in Calm   4 mph 39% 0 in WeatherCatV3.04B91 W/m2
14:19 80.7 °F 54.11 °F 29.72 in Calm     40% 0 in WeatherCatV3.04B91 W/m2
14:24 81.1 °F 53.77 °F 29.72 in Calm     39% 0 in WeatherCatV3.04B91 W/m2
14:29 81.4 °F 54.04 °F 29.72 in ENE 1 mph 5 mph 39% 0 in WeatherCatV3.04B91 W/m2
14:34 81.8 °F 55.77 °F 29.72 in Calm     41% 0 in WeatherCatV3.04B91 W/m2
14:39 82 °F 53.13 °F 29.72 in Calm     37% 0 in WeatherCatV3.04B91 W/m2
14:44 82.4 °F 53.48 °F 29.71 in Calm     37% 0 in WeatherCatV3.04B91 W/m2
14:49 82.6 °F 52.91 °F 29.71 in Calm     36% 0 in WeatherCatV3.04B91 W/m2
14:54 82.8 °F 53.83 °F 29.71 in Calm     37% 0 in WeatherCatV3.04B91 W/m2
14:59 83 °F 52.49 °F 29.70 in Calm     35% 0 in WeatherCatV3.04B91 W/m2
15:04 83.4 °F 52.06 °F 29.70 in WSW 2 mph 5 mph 34% 0 in WeatherCatV3.04B91 W/m2
15:09 83.8 °F 51.6 °F 29.70 in Calm     33% 0 in WeatherCatV3.04B91 W/m2
15:14 83.6 °F 50.59 °F 29.70 in Calm   1 mph 32% 0 in WeatherCatV3.04B91 W/m2
15:19 83.4 °F 50.42 °F 29.70 in SW 1 mph 2 mph 32% 0 in WeatherCatV3.04B91 W/m2
15:24 83.2 °F 51.07 °F 29.70 in Calm     33% 0 in WeatherCatV3.04B91 W/m2
15:29 83.2 °F 50.24 °F 29.70 in WSW 3 mph 4 mph 32% 0 in WeatherCatV3.04B91 W/m2
15:34 83.6 °F 51.42 °F 29.70 in Calm   1 mph 33% 0 in WeatherCatV3.04B91 W/m2
15:39 83.8 °F 50.76 °F 29.70 in Calm   1 mph 32% 0 in WeatherCatV3.04B91 W/m2
15:44 84.3 °F 51.2 °F 29.70 in Calm   3 mph 32% 0 in WeatherCatV3.04B91 W/m2
15:49 84.7 °F 51.54 °F 29.70 in SW 3 mph 4 mph 32% 0 in WeatherCatV3.04B91 W/m2
15:54 84.7 °F 50.69 °F 29.70 in Calm   4 mph 31% 0 in WeatherCatV3.04B91 W/m2
15:59 84.3 °F 50.34 °F 29.69 in Calm     31% 0 in WeatherCatV3.04B91 W/m2
16:04 83.8 °F 51.6 °F 29.69 in Calm   1 mph 33% 0 in WeatherCatV3.04B91 W/m2
16:09 84 °F 52.58 °F 29.69 in Calm   2 mph 34% 0 in WeatherCatV3.04B91 W/m2
16:14 84 °F 50.08 °F 29.69 in Calm   1 mph 31% 0 in WeatherCatV3.04B91 W/m2
16:19 84 °F 50.94 °F 29.69 in Calm     32% 0 in WeatherCatV3.04B91 W/m2
16:24 84 °F 50.94 °F 29.69 in Calm     32% 0 in WeatherCatV3.04B91 W/m2
16:29 84 °F 50.94 °F 29.69 in Calm     32% 0 in WeatherCatV3.04B91 W/m2
16:34 83.6 °F 52.23 °F 29.69 in Calm     34% 0 in WeatherCatV3.04B91 W/m2
16:39 83.4 °F 52.06 °F 29.69 in Calm     34% 0 in WeatherCatV3.04B91 W/m2
16:44 83.2 °F 51.88 °F 29.68 in Calm     34% 0 in WeatherCatV3.04B91 W/m2
16:49 83.2 °F 51.88 °F 29.68 in Calm     34% 0 in WeatherCatV3.04B91 W/m2
16:54 83.2 °F 50.24 °F 29.68 in Calm   2 mph 32% 0 in WeatherCatV3.04B91 W/m2
16:59 83.2 °F 51.88 °F 29.68 in Calm   1 mph 34% 0 in WeatherCatV3.04B91 W/m2
17:04 83 °F 51.71 °F 29.68 in Calm     34% 0 in WeatherCatV3.04B91 W/m2
17:09 83 °F 50.9 °F 29.68 in Calm     33% 0 in WeatherCatV3.04B91 W/m2
17:14 82.8 °F 52.32 °F 29.68 in Calm   1 mph 35% 0 in WeatherCatV3.04B91 W/m2
17:19 82.8 °F 52.32 °F 29.68 in Calm   2 mph 35% 0 in WeatherCatV3.04B91 W/m2
17:24 82.6 °F 52.91 °F 29.68 in Calm     36% 0 in WeatherCatV3.04B91 W/m2
17:29 82.6 °F 52.91 °F 29.67 in Calm     36% 0 in WeatherCatV3.04B91 W/m2
17:34 82.4 °F 52.73 °F 29.67 in Calm     36% 0 in WeatherCatV3.04B91 W/m2
17:39 82.4 °F 51.97 °F 29.67 in Calm   2 mph 35% 0 in WeatherCatV3.04B91 W/m2
17:44 82.4 °F 53.48 °F 29.67 in Calm   2 mph 37% 0 in WeatherCatV3.04B91 W/m2
17:49 82.4 °F 54.21 °F 29.67 in Calm   3 mph 38% 0 in WeatherCatV3.04B91 W/m2
17:54 82.4 °F 51.18 °F 29.67 in Calm   5 mph 34% 0 in WeatherCatV3.04B91 W/m2
17:59 82.6 °F 51.36 °F 29.67 in Calm   4 mph 34% 0 in WeatherCatV3.04B91 W/m2
18:04 82.6 °F 51.36 °F 29.67 in SW 3 mph 5 mph 34% 0 in WeatherCatV3.04B91 W/m2
18:09 82.6 °F 51.36 °F 29.67 in Calm   6 mph 34% 0 in WeatherCatV3.04B91 W/m2
18:14 82.6 °F 52.14 °F 29.67 in Calm   3 mph 35% 0 in WeatherCatV3.04B91 W/m2
18:19 82.4 °F 51.97 °F 29.67 in Calm   5 mph 35% 0 in WeatherCatV3.04B91 W/m2
18:24 82.4 °F 51.97 °F 29.67 in Calm   3 mph 35% 0 in WeatherCatV3.04B91 W/m2
18:29 82.2 °F 54.75 °F 29.66 in Calm     39% 0 in WeatherCatV3.04B91 W/m2
18:34 82 °F 53.13 °F 29.66 in Calm     37% 0 in WeatherCatV3.04B91 W/m2
18:39 81.8 °F 53.68 °F 29.66 in Calm     38% 0 in WeatherCatV3.04B91 W/m2
18:44 81.6 °F 53.5 °F 29.66 in Calm     38% 0 in WeatherCatV3.04B91 W/m2
18:49 81.4 °F 54.04 °F 29.66 in Calm     39% 0 in WeatherCatV3.04B91 W/m2
18:54 81.2 °F 53.86 °F 29.66 in Calm   2 mph 39% 0 in WeatherCatV3.04B91 W/m2
18:59 81.1 °F 53.77 °F 29.66 in Calm   3 mph 39% 0 in WeatherCatV3.04B91 W/m2
19:04 80.9 °F 54.29 °F 29.66 in Calm   2 mph 40% 0 in WeatherCatV3.04B91 W/m2
19:09 80.7 °F 54.11 °F 29.66 in Calm   5 mph 40% 0 in WeatherCatV3.04B91 W/m2
19:14 80.5 °F 54.61 °F 29.64 in WSW 1 mph 4 mph 41% 0 in WeatherCatV3.04B91 W/m2
19:19 80.3 °F 54.43 °F 29.64 in Calm   9 mph 41% 0 in WeatherCatV3.04B91 W/m2
19:24 80.1 °F 54.25 °F 29.64 in Calm   2 mph 41% 0 in WeatherCatV3.04B91 W/m2
19:29 80.1 °F 54.91 °F 29.64 in Calm   1 mph 42% 0 in WeatherCatV3.04B91 W/m2
19:34 79.9 °F 54.73 °F 29.64 in Calm   3 mph 42% 0 in WeatherCatV3.04B91 W/m2
19:39 79.8 °F 55.29 °F 29.64 in Calm   1 mph 43% 0 in WeatherCatV3.04B91 W/m2
19:44 79.6 °F 55.11 °F 29.64 in SW 1 mph 5 mph 43% 0 in WeatherCatV3.04B91 W/m2
19:49 79.4 °F 56.18 °F 29.64 in Calm     45% 0 in WeatherCatV3.04B91 W/m2
19:54 79 °F 55.82 °F 29.64 in Calm     45% 0 in WeatherCatV3.04B91 W/m2
19:59 78.6 °F 56.06 °F 29.64 in SW 3 mph 3 mph 46% 0 in WeatherCatV3.04B91 W/m2
20:04 78.5 °F 56.57 °F 29.64 in Calm   1 mph 47% 0 in WeatherCatV3.04B91 W/m2
20:09 78.3 °F 56.39 °F 29.64 in Calm   3 mph 47% 0 in WeatherCatV3.04B91 W/m2
20:14 77.9 °F 56.61 °F 29.64 in Calm   8 mph 48% 0 in WeatherCatV3.04B91 W/m2
20:19 77.7 °F 56.99 °F 29.64 in Calm   1 mph 49% 0 in WeatherCatV3.04B91 W/m2
20:24 77.6 °F 56.9 °F 29.64 in Calm   4 mph 49% 0 in WeatherCatV3.04B91 W/m2
20:29 77.4 °F 57.28 °F 29.64 in Calm   1 mph 50% 0 in WeatherCatV3.04B91 W/m2
20:34 77.2 °F 57.65 °F 29.64 in Calm     51% 0 in WeatherCatV3.04B91 W/m2
20:39 76.8 °F 57.28 °F 29.64 in Calm   4 mph 51% 0 in WeatherCatV3.04B91 W/m2
20:44 76.7 °F 57.73 °F 29.64 in Calm   1 mph 52% 0 in WeatherCatV3.04B91 W/m2
20:49 76.5 °F 58.08 °F 29.64 in Calm   2 mph 53% 0 in WeatherCatV3.04B91 W/m2
20:54 76.3 °F 57.89 °F 29.64 in Calm     53% 0 in WeatherCatV3.04B91 W/m2
20:59 76.1 °F 58.23 °F 29.64 in Calm     54% 0 in WeatherCatV3.04B91 W/m2
21:04 75.8 °F 57.95 °F 29.64 in Calm     54% 0 in WeatherCatV3.04B91 W/m2
21:09 75.6 °F 57.76 °F 29.64 in Calm   1 mph 54% 0 in WeatherCatV3.04B91 W/m2
21:14 75.6 °F 58.28 °F 29.64 in Calm     55% 0 in WeatherCatV3.04B91 W/m2
21:19 75.4 °F 58.59 °F 29.64 in Calm     56% 0 in WeatherCatV3.04B91 W/m2
21:24 75.3 °F 58.5 °F 29.64 in Calm   3 mph 56% 0 in WeatherCatV3.04B91 W/m2
21:29 75.1 °F 58.81 °F 29.64 in Calm     57% 0 in WeatherCatV3.04B91 W/m2
21:34 74.9 °F 59.11 °F 29.64 in Calm     58% 0 in WeatherCatV3.04B91 W/m2
21:39 74.6 °F 59.31 °F 29.64 in Calm     59% 0 in WeatherCatV3.04B91 W/m2
21:44 74.4 °F 59.12 °F 29.65 in Calm     59% 0 in WeatherCatV3.04B91 W/m2
21:49 73.9 °F 59.12 °F 29.65 in Calm     60% 0 in WeatherCatV3.04B91 W/m2
21:54 73.5 °F 59.21 °F 29.65 in Calm     61% 0 in WeatherCatV3.04B91 W/m2
21:59 73.2 °F 59.38 °F 29.65 in Calm     62% 0 in WeatherCatV3.04B91 W/m2
22:04 72.7 °F 59.36 °F 29.65 in Calm     63% 0 in WeatherCatV3.04B91 W/m2
22:09 72.3 °F 59.42 °F 29.65 in Calm     64% 0 in WeatherCatV3.04B91 W/m2
22:14 72.1 °F 59.67 °F 29.65 in Calm     65% 0 in WeatherCatV3.04B91 W/m2
22:19 71.8 °F 59.81 °F 29.65 in Calm     66% 0 in WeatherCatV3.04B91 W/m2
22:24 71.6 °F 59.63 °F 29.65 in Calm     66% 0 in WeatherCatV3.04B91 W/m2
22:29 71.3 °F 59.76 °F 29.65 in Calm     67% 0 in WeatherCatV3.04B91 W/m2
22:34 71.3 °F 60.18 °F 29.65 in Calm     68% 0 in WeatherCatV3.04B91 W/m2
22:39 71.1 °F 59.99 °F 29.65 in Calm     68% 0 in WeatherCatV3.04B91 W/m2
22:44 71.1 °F 60.4 °F 29.65 in Calm     69% 0 in WeatherCatV3.04B91 W/m2
22:49 70.9 °F 60.21 °F 29.65 in Calm     69% 0 in WeatherCatV3.04B91 W/m2
22:54 70.9 °F 60.21 °F 29.65 in Calm     69% 0 in WeatherCatV3.04B91 W/m2
22:59 70.9 °F 60.21 °F 29.65 in Calm     69% 0 in WeatherCatV3.04B91 W/m2
23:04 70.8 °F 60.52 °F 29.65 in Calm     70% 0 in WeatherCatV3.04B91 W/m2
23:09 70.8 °F 60.52 °F 29.65 in Calm     70% 0 in WeatherCatV3.04B91 W/m2
23:14 70.6 °F 60.33 °F 29.64 in Calm     70% 0 in WeatherCatV3.04B91 W/m2
23:19 70.6 °F 60.33 °F 29.64 in Calm     70% 0 in WeatherCatV3.04B91 W/m2
23:24 70.4 °F 60.54 °F 29.64 in Calm     71% 0 in WeatherCatV3.04B91 W/m2
23:29 70.4 °F 60.54 °F 29.63 in Calm     71% 0 in WeatherCatV3.04B91 W/m2
23:34 70.3 °F 60.83 °F 29.63 in Calm     72% 0 in WeatherCatV3.04B91 W/m2
23:39 70.3 °F 60.83 °F 29.63 in Calm     72% 0 in WeatherCatV3.04B91 W/m2
23:44 70.1 °F 61.03 °F 29.63 in Calm     73% 0 in WeatherCatV3.04B91 W/m2
23:49 69.9 °F 60.84 °F 29.63 in Calm     73% 0 in WeatherCatV3.04B91 W/m2
23:54 69.8 °F 61.13 °F 29.63 in Calm     74% 0 in WeatherCatV3.04B91 W/m2
23:59 69.6 °F 61.31 °F 29.63 in Calm     75% 0 in WeatherCatV3.04B91 W/m2
Bellevue, Nebraska, USA
Compliments of Weather Underground - 3.25 mb